Time;durP1;ratioP1;P1;durP2;ratioP2;P2;SDS_P1;SDS_P2;PMS_P1;PMS_P2;Temp;Humidity;BMP_temperature;BMP_pressure;BME280_temperature;BME280_humidity;BME280_pressure;Samples;Min_cycle;Max_cycle;Signal;HPM_P1;HPM_P2
2021/09/17 00:00:36;;;;;;;5.85;4.40;;;23.20;78.00;;;;;;5172820;28;20041;-58
2021/09/17 00:03:09;;;;;;;5.00;4.50;;;23.20;77.90;;;;;;5165414;28;20046;-58
2021/09/17 00:05:41;;;;;;;5.57;4.67;;;23.20;77.90;;;;;;5168704;28;20064;-53
2021/09/17 00:08:14;;;;;;;5.77;4.60;;;23.10;77.90;;;;;;5172337;28;20297;-57
2021/09/17 00:10:46;;;;;;;6.70;4.32;;;23.20;77.90;;;;;;5168271;28;20061;-59
2021/09/17 00:13:19;;;;;;;5.38;3.95;;;23.10;77.80;;;;;;5171791;28;20414;-58
2021/09/17 00:15:52;;;;;;;5.10;4.07;;;23.10;78.50;;;;;;5174273;28;20058;-59
2021/09/17 00:18:24;;;;;;;5.35;4.30;;;23.10;77.80;;;;;;5173871;28;20042;-55
2021/09/17 00:20:56;;;;;;;5.18;4.55;;;23.10;77.80;;;;;;5172031;28;20069;-55
2021/09/17 00:23:29;;;;;;;5.40;4.35;;;23.10;77.80;;;;;;5170580;28;20046;-56
2021/09/17 00:26:01;;;;;;;8.00;4.45;;;23.10;77.70;;;;;;5171740;28;20044;-54
2021/09/17 00:28:34;;;;;;;5.53;4.47;;;23.10;77.70;;;;;;5175095;28;20137;-58
2021/09/17 00:31:06;;;;;;;5.88;4.30;;;23.10;77.70;;;;;;5162926;28;20056;-56
2021/09/17 00:33:38;;;;;;;6.28;4.45;;;23.10;77.70;;;;;;5165961;28;20053;-55
2021/09/17 00:36:11;;;;;;;5.57;4.20;;;23.10;77.70;;;;;;5165800;28;20049;-55
2021/09/17 00:38:43;;;;;;;5.10;3.95;;;23.10;77.60;;;;;;5165699;28;20034;-53
2021/09/17 00:41:16;;;;;;;7.75;4.75;;;23.10;77.60;;;;;;5163996;28;20041;-52
2021/09/17 00:43:48;;;;;;;6.13;4.35;;;23.10;77.60;;;;;;5169621;28;20076;-55
2021/09/17 00:46:22;;;;;;;7.78;4.50;;;23.10;77.60;;;;;;5167464;28;20419;-52
2021/09/17 00:48:54;;;;;;;6.05;4.35;;;23.10;77.60;;;;;;5165038;28;20057;-57
2021/09/17 00:51:27;;;;;;;4.82;4.10;;;23.10;77.50;;;;;;5165645;28;20416;-55
2021/09/17 00:53:59;;;;;;;6.38;4.38;;;23.00;77.50;;;;;;5168579;28;20415;-58
2021/09/17 00:56:33;;;;;;;4.68;4.18;;;23.10;77.60;;;;;;5170041;28;20045;-59
2021/09/17 00:59:05;;;;;;;;;;;23.00;77.50;;;;;;5168333;28;20573;-53
2021/09/17 01:01:39;;;;;;;5.10;4.60;;;23.00;77.40;;;;;;5166949;28;20402;-57
2021/09/17 01:04:12;;;;;;;4.75;4.22;;;23.00;77.50;;;;;;5166703;28;20064;-60
2021/09/17 01:06:45;;;;;;;5.28;4.25;;;23.00;77.40;;;;;;5170360;28;20049;-58
2021/09/17 01:09:18;;;;;;;5.25;4.32;;;23.00;77.40;;;;;;5170172;28;20056;-60
2021/09/17 01:11:51;;;;;;;4.53;4.13;;;23.00;77.40;;;;;;5169045;28;20061;-58
2021/09/17 01:14:23;;;;;;;5.13;4.50;;;23.00;77.40;;;;;;5167383;28;20419;-58
2021/09/17 01:16:55;;;;;;;5.75;4.80;;;23.00;77.30;;;;;;5167247;28;20656;-56
2021/09/17 01:19:28;;;;;;;4.80;4.28;;;23.00;77.40;;;;;;5164594;28;20046;-59
2021/09/17 01:22:04;;;;;;;4.97;4.43;;;23.00;77.30;;;;;;5166645;28;20515;-57
2021/09/17 01:24:38;;;;;;;6.55;4.70;;;23.00;77.30;;;;;;5166570;28;20054;-58
2021/09/17 01:27:11;;;;;;;7.07;4.22;;;23.00;77.20;;;;;;5166412;28;20046;-57
2021/09/17 01:29:44;;;;;;;6.10;4.43;;;23.00;77.10;;;;;;5164231;28;20049;-59
2021/09/17 01:32:16;;;;;;;4.47;4.03;;;23.00;77.10;;;;;;5165739;28;20064;-56
2021/09/17 01:34:49;;;;;;;4.82;4.30;;;23.00;77.10;;;;;;5167689;28;20049;-58
2021/09/17 01:37:21;;;;;;;4.75;4.25;;;23.00;77.10;;;;;;5164001;28;20057;-57
2021/09/17 01:39:53;;;;;;;5.43;4.30;;;22.90;77.00;;;;;;5166444;28;20041;-58
2021/09/17 01:42:26;;;;;;;6.55;4.45;;;22.90;76.90;;;;;;5165870;28;20930;-56
2021/09/17 01:44:58;;;;;;;5.07;4.05;;;22.90;76.90;;;;;;5161414;28;20049;-53
2021/09/17 01:47:31;;;;;;;6.03;4.03;;;22.90;76.80;;;;;;5165183;28;20050;-56
2021/09/17 01:50:04;;;;;;;5.32;4.30;;;22.90;76.80;;;;;;5164998;28;20045;-57
2021/09/17 01:52:37;;;;;;;5.10;4.22;;;22.90;76.80;;;;;;5163061;28;20054;-57
2021/09/17 01:55:10;;;;;;;;;;;22.90;76.80;;;;;;5167555;28;20498;-54
2021/09/17 01:57:42;;;;;;;5.70;4.22;;;22.90;76.70;;;;;;5166198;28;19932;-57
2021/09/17 02:00:17;;;;;;;4.72;3.75;;;22.90;76.80;;;;;;5167152;28;20057;-60
2021/09/17 02:02:50;;;;;;;5.97;3.67;;;22.90;76.70;;;;;;5162865;28;20046;-57
2021/09/17 02:05:23;;;;;;;4.25;3.83;;;22.90;76.70;;;;;;5168842;28;20046;-55
2021/09/17 02:07:57;;;;;;;5.63;3.85;;;22.80;76.50;;;;;;5168507;28;20041;-58
2021/09/17 02:10:29;;;;;;;9.15;3.97;;;22.90;76.50;;;;;;5165743;28;20049;-57
2021/09/17 02:13:03;;;;;;;5.20;4.63;;;22.90;76.50;;;;;;5164783;28;20411;-57
2021/09/17 02:15:35;;;;;;;5.65;4.20;;;22.90;76.50;;;;;;5166339;28;20831;-54
2021/09/17 02:18:08;;;;;;;5.30;4.30;;;22.90;76.50;;;;;;5166409;28;20057;-54
2021/09/17 02:20:40;;;;;;;5.72;4.47;;;22.90;76.30;;;;;;5163862;28;20050;-58
2021/09/17 02:23:14;;;;;;;6.35;4.38;;;22.90;76.50;;;;;;5164251;28;20042;-57
2021/09/17 02:25:46;;;;;;;;;;;22.90;76.40;;;;;;5162856;28;20396;-60
2021/09/17 02:28:18;;;;;;;5.70;4.03;;;22.80;76.30;;;;;;5165968;28;20390;-58
2021/09/17 02:30:50;;;;;;;6.15;4.70;;;22.80;76.40;;;;;;5164911;28;20057;-55
2021/09/17 02:33:23;;;;;;;5.35;4.03;;;22.80;76.30;;;;;;5167266;28;20058;-55
2021/09/17 02:35:55;;;;;;;4.10;3.45;;;22.80;77.10;;;;;;5165193;28;20553;-57
2021/09/17 02:38:28;;;;;;;5.47;3.88;;;22.80;76.40;;;;;;5166154;28;20046;-59
2021/09/17 02:41:00;;;;;;;5.65;4.40;;;22.80;76.30;;;;;;5164472;28;20061;-58
2021/09/17 02:43:33;;;;;;;5.38;3.80;;;22.80;76.30;;;;;;5167155;28;20502;-60
2021/09/17 02:46:05;;;;;;;4.45;4.00;;;22.80;76.20;;;;;;5165072;28;20045;-58
2021/09/17 02:48:38;;;;;;;4.93;3.72;;;22.80;76.20;;;;;;5166519;28;20636;-54
2021/09/17 02:51:11;;;;;;;7.20;4.18;;;22.80;76.20;;;;;;5165136;28;20061;-57
2021/09/17 02:53:44;;;;;;;4.43;3.92;;;22.80;76.20;;;;;;5163796;28;20056;-53
2021/09/17 02:56:16;;;;;;;5.53;4.10;;;22.80;76.20;;;;;;5160964;28;20060;-57
2021/09/17 02:58:49;;;;;;;5.73;3.97;;;22.80;76.10;;;;;;5165594;28;20048;-60
2021/09/17 03:01:21;;;;;;;6.45;4.15;;;22.80;76.20;;;;;;5166072;28;20053;-58
2021/09/17 03:03:54;;;;;;;7.38;3.90;;;22.80;76.00;;;;;;5166910;28;20045;-58
2021/09/17 03:06:26;;;;;;;4.82;3.72;;;22.80;76.10;;;;;;5169497;28;20049;-59
2021/09/17 03:09:00;;;;;;;4.72;3.55;;;22.80;76.00;;;;;;5168662;28;20058;-58
2021/09/17 03:11:32;;;;;;;5.53;3.92;;;22.80;76.10;;;;;;5167311;28;20425;-59
2021/09/17 03:14:04;;;;;;;7.32;4.47;;;22.80;76.00;;;;;;5173236;28;20061;-59
2021/09/17 03:16:37;;;;;;;7.32;4.18;;;22.80;76.00;;;;;;5166546;28;20061;-57
2021/09/17 03:19:09;;;;;;;6.93;3.63;;;22.80;76.00;;;;;;5172237;28;20045;-58
2021/09/17 03:21:42;;;;;;;4.38;3.88;;;22.80;75.90;;;;;;5168100;28;20064;-54
2021/09/17 03:24:14;;;;;;;5.47;3.85;;;22.80;75.90;;;;;;5166702;28;20045;-58
2021/09/17 03:26:46;;;;;;;4.55;4.03;;;22.80;75.90;;;;;;5164274;28;20049;-54
2021/09/17 03:29:19;;;;;;;6.45;4.07;;;22.80;75.80;;;;;;5170538;28;20054;-54
2021/09/17 03:31:51;;;;;;;7.57;3.60;;;22.80;75.90;;;;;;5166802;28;20054;-54
2021/09/17 03:34:24;;;;;;;5.80;4.05;;;22.80;75.80;;;;;;5167938;28;20057;-57
2021/09/17 03:36:56;;;;;;;4.63;3.70;;;22.80;75.80;;;;;;5164159;28;20049;-53
2021/09/17 03:39:29;;;;;;;6.15;3.63;;;22.80;75.80;;;;;;5166366;28;20053;-56
2021/09/17 03:42:01;;;;;;;7.40;3.90;;;22.80;75.70;;;;;;5170155;28;20049;-59
2021/09/17 03:44:34;;;;;;;5.43;3.85;;;22.80;75.80;;;;;;5166967;28;20046;-58
2021/09/17 03:47:06;;;;;;;4.57;3.65;;;22.70;75.60;;;;;;5165183;28;20046;-56
2021/09/17 03:49:38;;;;;;;6.05;3.70;;;22.80;75.60;;;;;;5164912;28;20050;-54
2021/09/17 03:52:11;;;;;;;4.32;3.80;;;22.70;75.50;;;;;;5166963;28;20069;-55
2021/09/17 03:54:43;;;;;;;5.63;4.03;;;22.70;75.40;;;;;;5167214;28;20142;-61
2021/09/17 03:57:16;;;;;;;5.10;3.60;;;22.70;75.50;;;;;;5190542;28;20056;-60
2021/09/17 03:59:48;;;;;;;4.75;3.63;;;22.70;75.60;;;;;;5186858;28;20076;-58
2021/09/17 04:02:25;;;;;;;7.00;3.53;;;22.70;75.50;;;;;;5185540;28;20056;-57
2021/09/17 04:04:57;;;;;;;4.27;3.27;;;22.70;75.50;;;;;;5185094;28;20103;-57
2021/09/17 04:07:30;;;;;;;3.78;3.30;;;22.70;75.40;;;;;;5175171;28;20038;-59
2021/09/17 04:10:03;;;;;;;4.70;3.60;;;22.70;75.40;;;;;;5188501;28;20118;-57
2021/09/17 04:12:36;;;;;;;;;;;22.70;75.40;;;;;;5186277;28;20054;-61
2021/09/17 04:15:10;;;;;;;5.95;3.78;;;22.70;75.40;;;;;;5180797;28;20400;-57
2021/09/17 04:17:42;;;;;;;;;;;22.70;75.50;;;;;;5177065;28;20045;-56
2021/09/17 04:20:15;;;;;;;4.90;3.95;;;22.60;75.40;;;;;;5179117;28;19932;-55
2021/09/17 04:22:47;;;;;;;5.28;3.58;;;22.70;75.50;;;;;;5179473;28;20521;-56
2021/09/17 04:25:21;;;;;;;6.43;3.55;;;22.70;75.40;;;;;;5170998;28;20034;-58
2021/09/17 04:27:54;;;;;;;4.15;3.60;;;22.70;75.40;;;;;;5174612;28;20084;-58
2021/09/17 04:30:27;;;;;;;7.10;4.32;;;22.70;75.40;;;;;;5172708;28;20285;-60
2021/09/17 04:32:59;;;;;;;8.33;4.03;;;22.70;75.30;;;;;;5178825;28;21228;-61
2021/09/17 04:35:32;;;;;;;6.97;3.53;;;22.70;75.20;;;;;;5173722;28;21087;-61
2021/09/17 04:38:04;;;;;;;4.35;3.30;;;22.70;75.30;;;;;;5178929;28;20054;-58
2021/09/17 04:40:36;;;;;;;6.95;3.83;;;22.70;75.30;;;;;;5157914;28;20054;-60
2021/09/17 04:43:09;;;;;;;3.53;2.97;;;22.70;75.20;;;;;;5166185;28;20061;-60
2021/09/17 04:45:41;;;;;;;4.30;3.40;;;22.70;75.30;;;;;;5165032;28;20064;-58
2021/09/17 04:48:15;;;;;;;6.43;3.72;;;22.70;75.30;;;;;;5159059;28;20498;-59
2021/09/17 04:50:48;;;;;;;5.03;3.70;;;22.70;75.30;;;;;;5163216;28;20068;-57
2021/09/17 04:53:20;;;;;;;9.52;3.67;;;22.70;75.40;;;;;;5167912;28;20053;-58
2021/09/17 04:55:53;;;;;;;5.32;3.17;;;22.70;75.40;;;;;;5164953;28;20441;-56
2021/09/17 04:58:45;;;;;;;7.18;3.60;;;22.70;75.40;;;;;;5158703;28;20537;-59
2021/09/17 05:01:18;;;;;;;4.80;3.47;;;22.70;75.50;;;;;;5154130;28;20076;-59
2021/09/17 05:03:50;;;;;;;4.22;3.83;;;22.70;75.60;;;;;;5157972;28;20052;-59
2021/09/17 05:06:23;;;;;;;6.82;3.67;;;22.70;75.60;;;;;;5163729;28;20569;-59
2021/09/17 05:08:55;;;;;;;6.00;3.85;;;22.70;75.60;;;;;;5170632;28;20056;-59
2021/09/17 05:11:28;;;;;;;12.75;3.88;;;22.70;75.50;;;;;;5155471;28;23076;-57
2021/09/17 05:14:00;;;;;;;5.37;3.53;;;22.70;75.50;;;;;;5161274;28;21697;-56
2021/09/17 05:16:33;;;;;;;6.45;3.80;;;22.70;75.50;;;;;;5158704;28;20056;-58
2021/09/17 05:19:05;;;;;;;6.35;3.22;;;22.70;75.40;;;;;;5152230;28;20038;-58
2021/09/17 05:21:38;;;;;;;9.40;4.00;;;22.70;75.30;;;;;;5150876;28;20708;-59
2021/09/17 05:24:10;;;;;;;8.40;3.70;;;22.70;75.20;;;;;;5163344;28;20076;-58
2021/09/17 05:26:43;;;;;;;7.00;3.50;;;22.70;75.30;;;;;;5160624;28;20633;-57
2021/09/17 05:29:16;;;;;;;11.13;3.65;;;22.70;75.30;;;;;;5168414;28;20041;-57
2021/09/17 05:31:48;;;;;;;6.80;3.72;;;22.70;75.30;;;;;;5162169;28;20065;-57
2021/09/17 05:34:21;;;;;;;7.97;3.50;;;22.70;75.40;;;;;;5164390;28;20044;-56
2021/09/17 05:36:53;;;;;;;5.82;3.72;;;22.70;75.40;;;;;;5165943;28;20045;-56
2021/09/17 05:39:25;;;;;;;7.95;3.78;;;22.70;75.40;;;;;;5167579;28;22241;-55
2021/09/17 05:41:58;;;;;;;7.70;3.55;;;22.70;75.30;;;;;;5167128;28;20042;-57
2021/09/17 05:44:30;;;;;;;4.60;4.00;;;22.70;74.90;;;;;;5166845;28;20450;-56
2021/09/17 05:47:03;;;;;;;7.88;3.97;;;22.70;74.90;;;;;;5177642;28;20643;-58
2021/09/17 05:49:35;;;;;;;6.68;4.00;;;22.70;75.10;;;;;;5153736;28;20065;-59
2021/09/17 05:52:08;;;;;;;6.88;3.60;;;22.70;75.30;;;;;;5172061;28;20056;-58
2021/09/17 05:54:40;;;;;;;4.93;3.38;;;22.60;75.20;;;;;;5176580;28;20057;-54
2021/09/17 05:57:13;;;;;;;6.72;3.78;;;22.70;75.20;;;;;;5170992;28;20060;-56
2021/09/17 05:59:45;;;;;;;6.43;3.57;;;22.60;75.00;;;;;;5170324;28;20041;-56
2021/09/17 06:02:18;;;;;;;4.70;3.60;;;22.60;74.90;;;;;;5171067;28;20045;-58
2021/09/17 06:04:51;;;;;;;6.03;3.60;;;22.60;74.90;;;;;;5170030;28;20077;-57
2021/09/17 06:07:23;;;;;;;7.82;3.22;;;22.60;74.90;;;;;;5169097;28;20972;-57
2021/09/17 06:09:55;;;;;;;5.65;3.85;;;22.60;74.90;;;;;;5170244;28;20056;-57
2021/09/17 06:12:28;;;;;;;4.88;3.47;;;22.60;74.80;;;;;;5167846;28;20064;-57
2021/09/17 06:15:00;;;;;;;8.77;3.72;;;22.60;74.90;;;;;;5170137;28;20045;-58
2021/09/17 06:17:33;;;;;;;6.10;3.60;;;22.60;74.90;;;;;;5152843;28;20049;-55
2021/09/17 06:20:07;;;;;;;7.18;4.70;;;22.60;74.80;;;;;;5167199;28;20056;-58
2021/09/17 06:22:41;;;;;;;4.82;3.67;;;22.60;74.10;;;;;;5167778;28;20634;-58
2021/09/17 06:25:17;;;;;;;4.68;3.20;;;22.60;74.10;;;;;;5166776;28;20112;-59
2021/09/17 06:27:50;;;;;;;5.40;3.83;;;22.60;74.40;;;;;;5174520;28;20068;-58
2021/09/17 06:30:23;;;;;;;7.45;3.80;;;22.60;74.50;;;;;;5165940;28;20049;-59
2021/09/17 06:32:56;;;;;;;6.68;4.00;;;22.60;74.60;;;;;;5162078;28;20079;-59
2021/09/17 06:35:28;;;;;;;7.85;4.07;;;22.60;74.60;;;;;;5159921;28;20056;-59
2021/09/17 06:38:01;;;;;;;32.85;6.40;;;22.60;74.60;;;;;;5171163;28;20053;-57
2021/09/17 06:40:33;;;;;;;21.88;5.10;;;22.60;74.60;;;;;;5172866;28;20041;-56
2021/09/17 06:43:06;;;;;;;15.20;4.65;;;22.70;74.60;;;;;;5171792;28;20049;-58
2021/09/17 06:45:38;;;;;;;18.92;4.75;;;22.60;74.50;;;;;;5160853;28;20133;-57
2021/09/17 06:48:11;;;;;;;17.53;4.43;;;22.70;74.60;;;;;;5164139;28;20060;-58
2021/09/17 06:50:43;;;;;;;11.35;4.05;;;22.60;74.60;;;;;;5163087;28;20061;-59
2021/09/17 06:53:16;;;;;;;6.78;3.90;;;22.70;74.70;;;;;;5176694;28;20058;-57
2021/09/17 06:55:48;;;;;;;10.77;3.75;;;22.70;74.70;;;;;;5145827;28;20350;-57
2021/09/17 06:58:21;;;;;;;14.50;4.47;;;22.70;74.50;;;;;;5171545;28;20053;-56
2021/09/17 07:00:53;;;;;;;8.35;4.22;;;22.60;74.40;;;;;;5138182;28;20058;-56
2021/09/17 07:03:27;;;;;;;10.47;4.10;;;22.60;74.40;;;;;;5178284;28;20056;-55
2021/09/17 07:05:59;;;;;;;26.75;4.15;;;22.70;74.40;;;;;;5172773;28;21516;-54
2021/09/17 07:08:32;;;;;;;17.33;4.38;;;22.70;74.40;;;;;;5176820;28;20048;-59
2021/09/17 07:11:04;;;;;;;12.27;4.40;;;22.70;74.40;;;;;;5179365;28;20049;-57
2021/09/17 07:13:37;;;;;;;8.93;3.80;;;22.70;74.50;;;;;;5171767;28;20060;-59
2021/09/17 07:16:09;;;;;;;14.60;4.10;;;22.70;74.50;;;;;;5169783;28;20057;-55
2021/09/17 07:18:42;;;;;;;10.07;3.23;;;22.70;74.20;;;;;;5178407;28;20406;-57
2021/09/17 07:21:14;;;;;;;8.27;3.10;;;22.80;74.30;;;;;;5182541;28;20117;-57
2021/09/17 07:23:47;;;;;;;12.57;3.97;;;22.80;73.90;;;;;;5186285;28;20064;-55
2021/09/17 07:26:19;;;;;;;7.95;2.75;;;22.80;73.70;;;;;;5165171;28;20049;-56
2021/09/17 07:28:51;;;;;;;7.20;3.10;;;22.90;73.50;;;;;;5186758;28;20049;-56
2021/09/17 07:31:24;;;;;;;7.75;2.88;;;22.90;73.40;;;;;;5173601;28;20064;-56
2021/09/17 07:33:57;;;;;;;5.30;3.05;;;22.90;73.40;;;;;;5183958;28;20057;-58
2021/09/17 07:36:29;;;;;;;5.95;3.13;;;22.90;73.60;;;;;;5188603;28;20557;-57
2021/09/17 07:39:02;;;;;;;8.30;3.13;;;22.80;73.60;;;;;;5150146;28;20057;-56
2021/09/17 07:41:35;;;;;;;11.00;3.60;;;22.90;73.80;;;;;;5158612;28;20439;-54
2021/09/17 07:44:07;;;;;;;6.28;3.10;;;22.90;74.10;;;;;;5187582;28;20430;-55
2021/09/17 07:46:40;;;;;;;6.57;3.63;;;22.80;74.60;;;;;;5185690;28;20054;-55
2021/09/17 07:49:12;;;;;;;5.45;3.20;;;22.90;74.70;;;;;;5185533;28;20045;-58
2021/09/17 07:51:45;;;;;;;8.95;3.00;;;22.90;74.70;;;;;;5174310;28;20045;-57
2021/09/17 07:54:21;;;;;;;4.78;2.80;;;22.90;74.70;;;;;;5187717;28;20060;-58
2021/09/17 07:56:54;;;;;;;6.40;3.70;;;22.90;74.80;;;;;;5179274;28;20060;-58
2021/09/17 07:59:31;;;;;;;12.05;4.03;;;22.90;74.70;;;;;;5181740;28;20045;-60
2021/09/17 08:02:03;;;;;;;11.65;5.00;;;22.80;74.50;;;;;;5187204;28;20049;-58
2021/09/17 08:04:38;;;;;;;9.13;5.30;;;22.80;73.70;;;;;;5192696;28;20044;-58
2021/09/17 08:07:10;;;;;;;11.05;5.50;;;22.80;73.30;;;;;;5183927;28;20057;-58
2021/09/17 08:09:43;;;;;;;8.65;5.22;;;22.80;72.80;;;;;;5178134;28;20112;-55
2021/09/17 08:12:15;;;;;;;7.65;4.07;;;22.70;72.60;;;;;;5180190;28;20054;-57
2021/09/17 08:14:48;;;;;;;6.65;3.80;;;22.80;73.40;;;;;;5182119;28;20054;-55
2021/09/17 08:17:20;;;;;;;10.23;4.03;;;22.70;73.70;;;;;;5185150;28;20061;-58
2021/09/17 08:19:53;;;;;;;8.60;4.30;;;22.80;73.90;;;;;;5179532;28;20053;-58
2021/09/17 08:22:25;;;;;;;7.90;4.20;;;22.70;73.90;;;;;;5185363;28;20395;-59
2021/09/17 08:24:58;;;;;;;9.32;3.95;;;22.70;73.70;;;;;;5180796;28;20041;-58
2021/09/17 08:27:30;;;;;;;8.30;4.15;;;22.80;73.80;;;;;;5176626;28;20053;-57
2021/09/17 08:30:03;;;;;;;7.63;4.40;;;22.80;73.70;;;;;;5189479;28;20045;-58
2021/09/17 08:32:53;;;;;;;12.80;4.05;;;22.80;73.80;;;;;;5183453;28;20048;-55
2021/09/17 08:35:46;;;;;;;9.27;4.15;;;22.80;73.90;;;;;;5174191;28;20053;-58
2021/09/17 08:38:38;;;;;;;12.80;4.38;;;22.70;73.90;;;;;;5160032;28;20057;-56
2021/09/17 08:41:18;;;;;;;7.78;4.30;;;22.80;73.90;;;;;;5169956;28;20054;-57
2021/09/17 08:43:50;;;;;;;6.70;4.20;;;22.80;73.90;;;;;;5180692;28;20461;-57
2021/09/17 08:46:23;;;;;;;9.93;4.35;;;22.80;73.90;;;;;;5192398;28;20038;-58
2021/09/17 08:48:57;;;;;;;9.20;3.83;;;22.80;73.90;;;;;;5190363;28;20053;-55
2021/09/17 08:51:30;;;;;;;9.60;3.90;;;22.80;73.90;;;;;;5190784;28;20284;-56
2021/09/17 08:54:04;;;;;;;12.27;4.77;;;22.80;73.90;;;;;;5194940;28;20053;-55
2021/09/17 08:56:37;;;;;;;8.05;4.28;;;22.80;73.90;;;;;;5190661;28;20419;-56
2021/09/17 08:59:09;;;;;;;8.60;4.32;;;22.80;74.00;;;;;;5174465;28;20438;-53
2021/09/17 09:01:42;;;;;;;7.45;3.90;;;22.80;74.00;;;;;;5193421;28;20056;-58
2021/09/17 09:04:15;;;;;;;6.97;3.70;;;22.80;74.60;;;;;;5192649;28;20060;-58
2021/09/17 09:06:48;;;;;;;8.30;4.03;;;22.80;73.90;;;;;;5190417;28;20312;-58
2021/09/17 09:09:21;;;;;;;;;;;22.80;73.90;;;;;;5193787;28;20058;-58
2021/09/17 09:11:53;;;;;;;10.20;3.95;;;22.80;74.00;;;;;;5185615;28;19925;-58
2021/09/17 09:14:26;;;;;;;5.53;3.87;;;22.80;74.00;;;;;;5196208;28;20049;-58
2021/09/17 09:16:58;;;;;;;8.15;4.15;;;22.80;74.00;;;;;;5193406;28;20052;-58
2021/09/17 09:19:37;;;;;;;5.32;3.80;;;22.80;74.00;;;;;;5191432;28;20049;-58
2021/09/17 09:22:11;;;;;;;7.70;3.92;;;22.80;74.70;;;;;;5193968;28;20048;-56
2021/09/17 09:24:44;;;;;;;6.70;3.72;;;22.80;74.00;;;;;;5187220;28;20529;-58
2021/09/17 09:27:19;;;;;;;10.52;4.40;;;22.90;74.00;;;;;;5194805;28;20049;-56
2021/09/17 09:29:52;;;;;;;5.05;3.85;;;22.80;74.00;;;;;;5194257;28;20091;-57
2021/09/17 09:32:34;;;;;;;6.50;4.28;;;22.80;74.00;;;;;;5189505;28;20053;-58
2021/09/17 09:35:09;;;;;;;8.32;4.38;;;22.90;74.70;;;;;;5194935;28;20422;-58
2021/09/17 09:37:42;;;;;;;11.85;4.60;;;22.90;74.10;;;;;;5191420;28;20049;-57
2021/09/17 09:40:17;;;;;;;6.80;3.80;;;22.90;74.10;;;;;;5172232;28;20498;-58
2021/09/17 09:42:49;;;;;;;5.63;3.90;;;22.80;74.10;;;;;;5189551;28;20045;-57
2021/09/17 09:45:24;;;;;;;5.90;4.03;;;22.80;74.10;;;;;;5189768;28;20041;-59
2021/09/17 09:47:57;;;;;;;5.15;4.03;;;22.90;74.10;;;;;;5189838;28;20463;-57
2021/09/17 09:50:30;;;;;;;8.80;3.93;;;22.80;74.10;;;;;;5175199;28;20052;-59
2021/09/17 09:53:03;;;;;;;4.88;3.72;;;22.80;74.10;;;;;;5180713;28;20053;-58
2021/09/17 09:55:36;;;;;;;6.40;3.83;;;22.90;74.20;;;;;;5191072;28;20886;-57
2021/09/17 09:58:09;;;;;;;8.13;4.30;;;22.80;74.10;;;;;;5187989;28;20087;-58
2021/09/17 10:00:42;;;;;;;6.55;3.67;;;22.90;74.10;;;;;;5171618;28;20057;-57
2021/09/17 10:03:15;;;;;;;12.15;4.63;;;22.80;74.10;;;;;;5189079;28;20045;-57
2021/09/17 10:05:48;;;;;;;7.35;4.82;;;22.90;74.10;;;;;;5187512;28;20037;-56
2021/09/17 10:08:20;;;;;;;5.15;3.83;;;22.90;74.10;;;;;;5191470;28;20045;-55
2021/09/17 10:10:54;;;;;;;6.82;3.78;;;22.90;74.10;;;;;;5187597;28;20618;-56
2021/09/17 10:13:27;;;;;;;6.72;4.18;;;22.90;74.20;;;;;;5185314;28;20061;-54
2021/09/17 10:16:00;;;;;;;8.85;4.22;;;22.90;74.10;;;;;;5183563;28;20053;-59
2021/09/17 10:18:37;;;;;;;5.72;4.22;;;22.90;74.10;;;;;;5171931;28;20049;-58
2021/09/17 10:21:13;;;;;;;6.28;4.05;;;22.80;74.10;;;;;;5180825;28;20526;-59
2021/09/17 10:23:45;;;;;;;8.40;3.70;;;22.80;74.10;;;;;;5189085;28;20173;-58
2021/09/17 10:26:17;;;;;;;6.03;3.67;;;22.80;74.20;;;;;;5185144;28;20042;-55
2021/09/17 10:29:05;;;;;;;5.50;4.22;;;22.80;74.30;;;;;;5160444;28;20049;-59
2021/09/17 10:31:43;;;;;;;6.47;4.10;;;22.80;74.20;;;;;;5177783;28;20056;-57
2021/09/17 10:34:40;;;;;;;9.95;4.35;;;22.80;74.30;;;;;;5160675;28;20060;-54
2021/09/17 10:37:13;;;;;;;6.70;4.25;;;22.80;74.30;;;;;;5183174;28;20536;-55
2021/09/17 10:40:06;;;;;;;5.93;4.17;;;22.80;74.40;;;;;;5186514;28;20661;-57
2021/09/17 10:42:38;;;;;;;5.80;3.95;;;22.80;74.30;;;;;;5187170;28;20049;-57
2021/09/17 10:45:11;;;;;;;5.93;4.20;;;22.80;74.30;;;;;;5179987;28;20480;-58
2021/09/17 10:47:43;;;;;;;5.65;3.97;;;22.80;74.30;;;;;;5182021;28;20064;-56
2021/09/17 10:50:15;;;;;;;6.38;3.90;;;22.80;74.30;;;;;;5183078;28;20049;-56
2021/09/17 10:52:50;;;;;;;8.00;4.53;;;22.80;74.30;;;;;;5181000;28;20050;-56
2021/09/17 10:55:44;;;;;;;4.93;3.60;;;22.80;74.30;;;;;;5184991;28;20049;-57
2021/09/17 10:58:27;;;;;;;4.60;4.10;;;22.80;74.30;;;;;;5170257;28;20068;-59
2021/09/17 11:01:06;;;;;;;6.30;3.70;;;22.80;74.30;;;;;;5180590;28;20057;-56
2021/09/17 11:03:38;;;;;;;7.57;4.07;;;22.80;74.30;;;;;;5181397;28;20049;-56
2021/09/17 11:06:27;;;;;;;4.57;3.67;;;22.80;74.30;;;;;;5182037;28;20049;-56
2021/09/17 11:09:06;;;;;;;4.90;3.80;;;22.80;74.30;;;;;;5179542;28;20050;-56
2021/09/17 11:11:42;;;;;;;7.43;4.15;;;22.80;74.30;;;;;;5187583;28;20502;-56
2021/09/17 11:14:14;;;;;;;10.68;4.30;;;22.80;74.30;;;;;;5182595;28;20061;-56
2021/09/17 11:16:49;;;;;;;5.45;3.67;;;22.80;74.30;;;;;;5184819;28;20663;-56
2021/09/17 11:19:21;;;;;;;11.45;4.25;;;22.80;74.30;;;;;;5186458;28;20104;-57
2021/09/17 11:21:54;;;;;;;9.50;4.70;;;22.80;74.30;;;;;;5177949;28;20045;-55
2021/09/17 11:24:28;;;;;;;9.25;3.70;;;22.80;74.20;;;;;;5169568;28;20045;-56
2021/09/17 11:27:01;;;;;;;11.07;4.32;;;22.80;74.30;;;;;;5166161;28;20048;-53
2021/09/17 11:29:34;;;;;;;10.90;5.25;;;22.80;75.40;;;;;;5168777;28;20056;-57
2021/09/17 11:32:06;;;;;;;12.52;4.25;;;22.80;74.90;;;;;;5168681;28;20059;-54
2021/09/17 11:34:39;;;;;;;9.50;4.07;;;22.80;75.00;;;;;;5173638;28;20053;-58
2021/09/17 11:37:11;;;;;;;9.82;4.60;;;22.80;74.90;;;;;;5172335;28;20112;-57
2021/09/17 11:39:43;;;;;;;12.07;4.82;;;22.90;74.90;;;;;;5173965;28;20045;-58
2021/09/17 11:42:16;;;;;;;11.00;4.07;;;22.90;74.80;;;;;;5168591;28;20042;-56
2021/09/17 11:44:53;;;;;;;9.85;3.75;;;22.80;74.60;;;;;;5161352;28;20096;-56
2021/09/17 11:47:32;;;;;;;8.63;4.28;;;22.90;74.60;;;;;;5174265;28;20037;-57
2021/09/17 11:50:08;;;;;;;8.82;3.88;;;22.80;74.50;;;;;;5190678;28;20053;-57
2021/09/17 11:52:50;;;;;;;13.00;4.03;;;22.80;74.40;;;;;;5181490;28;20056;-57
2021/09/17 11:55:25;;;;;;;8.20;3.90;;;22.80;74.20;;;;;;5188159;28;20053;-56
2021/09/17 11:57:59;;;;;;;11.45;4.15;;;22.90;74.30;;;;;;5186367;28;20053;-57
2021/09/17 12:00:31;;;;;;;8.90;3.55;;;22.90;74.20;;;;;;5190810;28;20057;-56
2021/09/17 12:03:08;;;;;;;13.13;4.18;;;22.90;74.20;;;;;;5188825;28;20621;-56
2021/09/17 12:05:43;;;;;;;8.02;3.92;;;22.90;74.10;;;;;;5179388;28;20041;-57
2021/09/17 12:08:19;;;;;;;9.27;4.20;;;22.90;74.10;;;;;;5178458;28;20053;-55
2021/09/17 12:10:59;;;;;;;16.75;3.92;;;22.90;74.20;;;;;;5191213;28;20057;-55
2021/09/17 12:13:32;;;;;;;12.90;5.13;;;22.90;74.30;;;;;;5191473;28;20050;-56
2021/09/17 12:16:06;;;;;;;10.38;4.72;;;22.90;74.40;;;;;;5182985;28;20275;-59
2021/09/17 12:18:39;;;;;;;14.00;4.05;;;22.90;74.60;;;;;;5182495;28;20045;-58
2021/09/17 12:21:20;;;;;;;11.52;4.22;;;22.90;74.70;;;;;;5189745;28;20060;-57
2021/09/17 12:24:22;;;;;;;10.38;3.80;;;23.00;74.80;;;;;;5183513;28;20041;-54
2021/09/17 12:26:58;;;;;;;11.75;3.70;;;23.00;74.80;;;;;;5180461;28;20049;-57
2021/09/17 12:29:30;;;;;;;6.50;3.60;;;23.00;74.90;;;;;;5177567;28;20045;-54
2021/09/17 12:32:15;;;;;;;8.77;4.32;;;22.90;75.00;;;;;;5166805;28;20060;-58
2021/09/17 12:35:10;;;;;;;13.27;4.20;;;22.90;74.90;;;;;;5175476;28;20056;-59
2021/09/17 12:37:56;;;;;;;14.90;4.35;;;23.00;75.00;;;;;;5160594;28;20060;-56
2021/09/17 12:40:30;;;;;;;13.43;4.28;;;22.90;75.00;;;;;;5160511;28;20056;-57
2021/09/17 12:43:11;;;;;;;10.20;4.45;;;22.90;75.60;;;;;;5169978;28;20425;-57
2021/09/17 12:46:00;;;;;;;12.43;3.97;;;22.90;75.10;;;;;;5176247;28;20684;-57
2021/09/17 12:48:34;;;;;;;15.63;4.55;;;22.90;75.00;;;;;;5183469;28;20503;-57
2021/09/17 12:51:15;;;;;;;11.57;3.97;;;22.90;75.00;;;;;;5187760;28;20393;-57
2021/09/17 12:53:48;;;;;;;9.93;4.03;;;22.90;75.00;;;;;;5191825;28;20057;-58
2021/09/17 12:56:21;;;;;;;8.32;3.75;;;22.90;74.90;;;;;;5192838;28;20067;-60
2021/09/17 12:59:11;;;;;;;10.27;4.10;;;22.90;74.80;;;;;;5189382;28;20567;-55
2021/09/17 13:01:46;;;;;;;12.45;4.80;;;22.90;74.70;;;;;;5193016;28;20049;-59
2021/09/17 13:04:26;;;;;;;9.70;3.92;;;22.90;74.70;;;;;;5191113;28;20058;-56
2021/09/17 13:06:58;;;;;;;8.57;3.78;;;23.00;74.70;;;;;;5189578;28;20048;-58
2021/09/17 13:09:31;;;;;;;10.38;3.75;;;22.90;74.60;;;;;;5192028;28;20049;-57
2021/09/17 13:12:03;;;;;;;7.55;3.70;;;22.90;74.50;;;;;;5192770;28;20494;-56
2021/09/17 13:14:36;;;;;;;8.77;3.42;;;23.00;74.50;;;;;;5192212;28;20061;-57
2021/09/17 13:17:08;;;;;;;7.50;3.58;;;22.90;74.50;;;;;;5192619;28;20537;-58
2021/09/17 13:19:41;;;;;;;10.25;4.00;;;23.00;74.50;;;;;;5191816;28;20045;-58